Home > Products > Valid Products > TAF

000
FTUS43 KAPX 252320
TAFTVC
TAF
KTVC 252320Z 2600/2624 VRB03KT P6SM VCSH SCT025 OVC035
     FM261400 13004KT P6SM BKN040=



000
FTUS43 KAPX 252320
TAFAPN
TAF
KAPN 252320Z 2600/2624 VRB03KT P6SM VCSH SCT025 OVC035
     FM260600 00000KT P6SM SCT050
     FM261400 05004KT P6SM BKN040=



000
FTUS43 KAPX 252320
TAFPLN
TAF
KPLN 252320Z 2600/2624 VRB03KT P6SM VCSH SCT025 OVC035
     FM261400 07004KT P6SM BKN040=



000
FTUS43 KAPX 252134 AAA
TAFTVC
TAF AMD
KTVC 252134Z 2522/2618 28007KT P6SM -SHSN SCT025 OVC040
     FM260100 25003KT P6SM OVC040
     FM260800 00000KT P6SM BKN040
     FM261400 13005KT P6SM SCT040=



000
FTUS43 KAPX 252134 AAA
TAFPLN
TAF AMD
KPLN 252134Z 2522/2618 28008KT 6SM -SHSN SCT028 OVC040
      TEMPO 2522/2601 29010G16KT 4SM -SHSN BKN028 OVC035
     FM260100 00000KT P6SM VCSH OVC030
     FM260700 VRB03KT 3SM -SHSN OVC025
     FM261300 13005KT P6SM BKN040=



000
FTUS43 KAPX 251720
TAFTVC
TAF
KTVC 251720Z 2518/2618 29010G18KT 6SM -SHSN SCT025 OVC040
      TEMPO 2518/2522 2SM -SHSN BKN019 OVC030
     FM252200 28005KT P6SM -SHSN SCT025 OVC040
     FM260100 25003KT P6SM OVC040
     FM260800 00000KT P6SM BKN040
     FM261400 13005KT P6SM SCT040=



000
FTUS43 KAPX 251720
TAFAPN
TAF
KAPN 251720Z 2518/2618 30008G16KT P6SM -SHSN SCT025 OVC040
      TEMPO 2518/2521 2SM -SHSN OVC025
     FM260100 26004KT P6SM SCT028 BKN040
     FM260800 00000KT P6SM FEW035
     FM261400 10005KT P6SM OVC028=



000
FTUS43 KAPX 251720
TAFPLN
TAF
KPLN 251720Z 2518/2618 31010G17KT 4SM -SHSN BKN028 OVC040
      TEMPO 2518/2522 3/4SM -SN SCT009 OVC018
     FM252200 28006KT 6SM -SHSN BKN028 OVC040
     FM260100 00000KT P6SM VCSH OVC030
     FM260700 VRB03KT 3SM -SHSN OVC025
     FM261300 13005KT P6SM BKN040=



000
FTUS43 KAPX 251604 AAA
TAFPLN
TAF AMD
KPLN 251604Z 2516/2612 31010KT 2SM -SN OVC015
      TEMPO 2516/2519 1/2SM SN BKN008
     FM252100 28004KT 6SM -SHSN OVC025
     FM260100 00000KT P6SM VCSH OVC020=



000
FTUS43 KAPX 251120
TAFTVC
TAF
KTVC 251120Z 2512/2612 29009G16KT 5SM -SN SCT012 OVC025
      TEMPO 2512/2516 1 1/2SM -SN SCT006 OVC012
     FM251600 28010G18KT 2SM -SHSN OVC015
     FM252200 28006KT 6SM -SHSN SCT015 OVC025
     FM260100 25003KT P6SM OVC035
     FM260800 00000KT P6SM SCT035=



000
FTUS43 KAPX 251120
TAFAPN
TAF
KAPN 251120Z 2512/2612 23008G17KT 6SM -SN BKN020 OVC050
      TEMPO 2512/2515 2SM -SN OVC012
     FM251500 28009KT P6SM OVC025
     FM260100 29007KT P6SM OVC020
     FM260900 00000KT P6SM SCT025=



000
FTUS43 KAPX 251120
TAFPLN
TAF
KPLN 251120Z 2512/2612 30009KT 1 1/2SM -SN OVC012
     FM251600 31009G16KT 2SM -SN OVC015
     FM252100 28004KT 6SM -SHSN OVC025
     FM260100 00000KT P6SM VCSH OVC020=



000
FTUS43 KAPX 250944 AAA
TAFAPN
TAF AMD
KAPN 250944Z 2510/2606 23008G17KT 6SM -SN BKN020 OVC050
      TEMPO 2510/2512 1 1/2SM -SN BKN009 OVC020
     FM251400 28009KT P6SM -SN OVC015
     FM260100 29007KT P6SM OVC012=



000
FTUS43 KAPX 250520
TAFTVC
TAF
KTVC 250520Z 2506/2606 28009KT 2SM -SN BR SCT006 OVC012
     FM250900 29009KT 1SM -SN OVC006
     FM251400 30010KT 3SM -SN OVC015
     FM252300 29004KT 4SM -SHSN SCT015 OVC025=



000
FTUS43 KAPX 250520
TAFAPN
TAF
KAPN 250520Z 2506/2606 25008KT 2SM -SN BR SCT006 OVC012
     FM250900 26009KT 1SM -SN OVC006
     FM251400 28009KT 2SM -SN OVC015
     FM252200 29007KT P6SM SCT015 OVC025=



000
FTUS43 KAPX 250520
TAFPLN
TAF
KPLN 250520Z 2506/2606 29010KT 2SM -SN BR SCT006 OVC012
     FM250900 30009KT 1SM -SN OVC006
     FM251400 30009KT 3SM -SN OVC015
     FM252300 29004KT 4SM -SHSN SCT015 OVC025=



000
FTUS43 KAPX 250318 AAB
TAFAPN
TAF AMD
KAPN 250318Z 2503/2524 24011G20KT 1 1/2SM -SN BR SCT006 OVC012
     FM250600 26009KT 1SM -SN OVC006
     FM251400 29008KT 2SM -SN OVC012=



000
FTUS43 KAPX 250242 AAA
TAFTVC
TAF AMD
KTVC 250242Z 2503/2524 30009KT 2SM -SN BR OVC012
     FM250600 32011KT 1SM -SN OVC006
     FM251400 31010KT 3SM -SN OVC015=



000
FTUS43 KAPX 250151 AAA
TAFPLN
TAF AMD
KPLN 250151Z 2502/2524 28010KT 1 1/2SM -SN BR SCT006 OVC012
     FM250600 30011KT 1SM -SN OVC006
     FM251400 31010KT 3SM -SN OVC015=



000
FTUS43 KAPX 250150 AAA
TAFAPN
TAF AMD
KAPN 250150Z 2502/2524 25011G20KT 3SM -SN BR SCT006 OVC012
     FM250400 29009KT 1SM -SN OVC006
     FM251400 29008KT 2SM -SN OVC012=



000
FTUS43 KAPX 242320
TAFPLN
TAF
KPLN 242320Z 2500/2524 30010KT 2SM -RASN BR OVC012
     FM250200 31011KT 1SM -SN OVC006
     FM251400 31010KT 3SM -SN OVC015=



000
FTUS43 KAPX 242320
TAFTVC
TAF
KTVC 242320Z 2500/2524 33010KT 2SM -RASN BR OVC012
     FM250200 32011KT 1SM -SN OVC006
     FM251400 31010KT 3SM -SN OVC015=



000
FTUS43 KAPX 242320
TAFAPN
TAF
KAPN 242320Z 2500/2524 29006KT 5SM -RA BR SCT012 OVC022
     FM250200 29007KT 3SM -RASN BR OVC010
     FM250400 29009KT 1SM -SN OVC006
     FM251400 29008KT 2SM -SN OVC012=



000
FTUS43 KAPX 242209 AAA
TAFAPN
TAF AMD
KAPN 242209Z 2422/2518 29006KT 5SM -RA BR OVC010
     FM250200 29007KT 3SM -RASN BR OVC009
     FM250400 24009KT 2SM -SN OVC012
     FM251400 29005KT 4SM -RA SCT005 OVC015=



000
FTUS43 KAPX 242208 AAA
TAFPLN
TAF AMD
KPLN 242208Z 2422/2518 30010KT 5SM -RA BR OVC010
     FM250000 30010KT 2SM -RASN BR OVC009
     FM250200 29011KT 1SM -SN OVC009
     FM251400 31012KT 3SM -SN OVC013=



000
FTUS43 KAPX 242207 AAA
TAFTVC
TAF AMD
KTVC 242207Z 2422/2518 33008KT 4SM -RA BR OVC010
     FM250000 33010KT 2SM -RASN BR OVC007
     FM250300 32011KT 1SM -SN OVC011
     FM251400 31012KT 2SM -SN OVC018=



000
FTUS43 KAPX 241732
TAFPLN
TAF
KPLN 241732Z 2418/2518 27009KT P6SM -SHRA OVC005
     FM242100 25006KT 4SM -RA BR OVC008
     FM242300 28007KT 2SM -RASN BR OVC009
     FM250200 29011KT 1SM -SN OVC009
     FM251400 31012KT 3SM -SN OVC013=



000
FTUS43 KAPX 241732
TAFAPN
TAF
KAPN 241732Z 2418/2518 21009G15KT P6SM -SHRA SCT009 OVC015
     FM242200 25006KT 4SM -RA BR OVC009
     FM250200 28007KT 3SM -RASN BR OVC009
     FM250400 24009KT 2SM -SN OVC012
     FM251400 29005KT 4SM -RA SCT005 OVC015=



000
FTUS43 KAPX 241732
TAFTVC
TAF
KTVC 241732Z 2418/2518 27009KT 6SM -SHRA BKN005 OVC015
     FM242000 25006KT 4SM -RA BR OVC005
     FM250000 28007KT 2SM -RASN BR OVC007
     FM250300 29011KT 1SM -SN OVC011
     FM251400 31012KT 2SM -SN OVC018=



000
FTUS43 KAPX 241538 AAA
TAFPLN
TAF AMD
KPLN 241538Z 2416/2512 25008KT 6SM -DZ OVC007
     FM241900 30009KT 6SM -RA BR OVC014
     FM250100 29008KT 1SM -SN OVC014=



000
FTUS43 KAPX 241537 AAA
TAFTVC
TAF AMD
KTVC 241537Z 2416/2512 26007KT 6SM -DZ BR OVC007
     FM241800 30007KT 6SM -RA BR OVC018
     FM250000 29007KT 1SM -SN OVC014=



000
FTUS43 KAPX 241121
TAFTVC
TAF
KTVC 241121Z 2412/2512 VRB05KT 5SM -RA BR OVC007
     FM241500 26007KT 6SM -RA BR OVC014
     FM241900 30007KT 6SM -RA BR OVC018
     FM250000 29007KT 1SM -SN OVC014=



000
FTUS43 KAPX 241121
TAFAPN
TAF
KAPN 241121Z 2412/2512 19007KT 5SM -RA OVC006 WS020/23035KT
     FM241400 22008KT 6SM -RA BR OVC012 WS020/25028KT
     FM242100 25007KT 6SM -RA BR OVC016
     FM250200 25007KT 2SM -SN OVC016=



000
FTUS43 KAPX 241121
TAFPLN
TAF
KPLN 241121Z 2412/2512 00000KT 1 1/2SM -RA BR OVC005
     FM241500 25008KT 6SM -RA BR OVC012
     FM241900 30009KT 6SM -RA BR OVC018
     FM250100 29008KT 1SM -SN OVC014=



000
FTUS43 KAPX 240909 AAA
TAFTVC
TAF AMD
KTVC 240909Z 2409/2506 10004KT 3SM -RA BR OVC008
     FM241200 22006KT 6SM -RA BR OVC012
     FM241500 26007KT 6SM -RA BR OVC014
     FM241900 30007KT 6SM -RA BR OVC018
     FM242300 29007KT 1SM -SN OVC014=



000
FTUS43 KAPX 240903 AAA
TAFPLN
TAF AMD
KPLN 240903Z 2409/2506 09007KT 5SM -RA BR OVC005
     FM241300 25008KT 6SM -RA BR OVC010
     FM241900 30009KT 6SM -RA BR OVC018
     FM242300 29008KT 1SM -SN OVC014=



000
FTUS43 KAPX 240520
TAFAPN
TAF
KAPN 240520Z 2406/2506 11008KT 3SM RA BR OVC004 WS014/16035KT
     FM241000 18009KT 4SM -RA BR OVC006
     FM241400 22008KT 6SM -RA BR OVC014
     FM242100 25007KT 6SM -RA BR OVC016
     FM250200 25007KT 2SM -SN OVC016=



000
FTUS43 KAPX 240520
TAFPLN
TAF
KPLN 240520Z 2406/2506 12006KT 1/2SM -RA FG OVC004
     FM241100 16006KT 2SM -RA BR OVC005
     FM241300 25008KT 6SM -RA BR OVC010
     FM241900 30009KT 6SM -RA BR OVC018
     FM242300 29008KT 1SM -SN OVC014=



000
FTUS43 KAPX 240520
TAFTVC
TAF
KTVC 240520Z 2406/2506 10004KT 5SM -RA BR BKN008 OVC040
     FM241200 22006KT 6SM -RA BR OVC012
     FM241500 26007KT 6SM -RA BR OVC014
     FM241900 30007KT 6SM -RA BR OVC018
     FM242300 29007KT 1SM -SN OVC014=



000
FTUS43 KAPX 240246 AAB
TAFAPN
TAF AMD
KAPN 240246Z 2403/2424 13009KT 3SM RA BR OVC005 WS014/16035KT
     FM241000 17009KT 5SM -RA BR OVC008 WS014/19030KT
     FM241400 22008KT 6SM -RA BR OVC014
     FM241900 26007KT 6SM -RA BR OVC016=



000
FTUS43 KAPX 240245 AAA
TAFPLN
TAF AMD
KPLN 240245Z 2403/2424 16006KT 1/2SM -RA FG BKN004 OVC035
      WS014/17030KT
     FM240900 15005KT 3SM -RA BR OVC008
     FM241300 26008KT 6SM -RA BR OVC014
     FM241900 29010G17KT 5SM -SHRASN OVC018=



000
FTUS43 KAPX 240109 AAA
TAFTVC
TAF AMD
KTVC 240109Z 2401/2424 15004KT 6SM RA BR OVC008 WS014/17030KT
      TEMPO 2401/2404 SCT008 OVC060
     FM240500 15003KT 2SM -RA BR OVC006
     FM241300 26007KT 6SM -RA BR OVC012
     FM241800 30009KT 5SM -SHRASN OVC018=



000
FTUS43 KAPX 240108 AAA
TAFAPN
TAF AMD
KAPN 240108Z 2401/2424 14007KT 2SM -RA BR SCT006 OVC050
      WS014/17032KT
     FM240300 13011KT 4SM RA BR OVC008 WS014/16035KT
     FM241000 17009KT 5SM -RA BR OVC008 WS014/19030KT
     FM241400 22008KT 6SM -RA BR OVC014
     FM241900 26007KT 6SM -RA BR OVC016=



000
FTUS43 KAPX 232326
TAFPLN
TAF
KPLN 232326Z 2400/2424 16006KT 1 1/2SM -RA BR SCT015 OVC025
      WS015/19026KT
     FM240300 13004KT 2SM RA BR OVC008 WS014/17030KT
     FM240900 15005KT 3SM -RA BR OVC008
     FM241300 26008KT 6SM -RA BR OVC014
     FM241900 29010G17KT 5SM -SHRASN OVC018=



000
FTUS43 KAPX 232326
TAFTVC
TAF
KTVC 232326Z 2400/2424 15004KT 6SM RA BR OVC008 WS014/17030KT
     FM240500 15003KT 2SM -RA BR OVC006
     FM241300 26007KT 6SM -RA BR OVC012
     FM241800 30009KT 5SM -SHRASN OVC018=



000
FTUS43 KAPX 232326
TAFAPN
TAF
KAPN 232326Z 2400/2424 15009KT 5SM -RA BR SCT008 OVC060
      WS014/17032KT
     FM240300 13011KT 4SM RA BR OVC008 WS014/16035KT
     FM241000 17009KT 5SM -RA BR OVC008 WS014/19030KT
     FM241400 22008KT 6SM -RA BR OVC014
     FM241900 26007KT 6SM -RA BR OVC016=



000
FTUS43 KAPX 232049 AAA
TAFAPN
TAF AMD
KAPN 232049Z 2321/2418 17009KT P6SM -RA OVC015 WS010/20030KT
     FM240100 13009KT 3SM RA BR OVC006 WS008/18042KT
     FM241300 19008KT 3SM -RA OVC009 WS013/20031KT=



000
FTUS43 KAPX 232047 AAA
TAFPLN
TAF AMD
KPLN 232047Z 2321/2418 16005KT 2SM -RA BR SCT006 OVC012
      WS015/21030KT
     FM240100 12004KT 2SM RA BR OVC006 WS007/18037KT
     FM241200 21005KT 3SM -RA OVC006
     FM241600 28008KT 5SM -RA OVC010=



000
FTUS43 KAPX 232046 AAA
TAFTVC
TAF AMD
KTVC 232046Z 2321/2418 16005KT 6SM -RA BR BKN012 OVC020
      WS015/20030KT
     FM240000 17006KT 3SM RA BR OVC006 WS007/17032KT
     FM240600 11006KT 3SM RA BR OVC006 WS007/15035KT
     FM241300 21005KT 3SM -RA OVC006
     FM241700 26008KT 5SM -RA OVC010=



000
FTUS43 KAPX 231739
TAFPLN
TAF
KPLN 231739Z 2318/2418 17006KT 3SM BR OVC006 WS015/21030KT
     FM231900 16005KT 5SM BR SCT006 OVC012 WS015/21030KT
     FM240200 12004KT 3SM RA BR OVC009 WS007/18037KT
     FM241200 21005KT 3SM -RA OVC006
     FM241600 28008KT 5SM -RA OVC010=



000
FTUS43 KAPX 231739
TAFTVC
TAF
KTVC 231739Z 2318/2418 16005KT P6SM BKN010 OVC022 WS015/20030KT
     FM240000 17006KT 3SM RA BR OVC006 WS007/17032KT
     FM240600 11006KT 3SM RA BR OVC006 WS007/15035KT
     FM241300 21005KT 3SM -RA OVC006
     FM241700 26008KT 5SM -RA OVC010=



000
FTUS43 KAPX 231739
TAFAPN
TAF
KAPN 231739Z 2318/2418 18009KT P6SM OVC010 WS010/20030KT
     FM240200 13009KT 3SM RA BR OVC006 WS008/18042KT
     FM241300 19008KT 3SM -RA OVC009 WS013/20031KT=



000
FTUS43 KAPX 231554 AAA
TAFTVC
TAF AMD
KTVC 231554Z 2316/2412 16005KT P6SM BKN010 OVC022 WS015/20030KT
     FM240000 12005KT 3SM RA BR OVC006 WS015/18032KT=



000
FTUS43 KAPX 231554 AAA
TAFTVC
TAF AMD
KTVC 231554Z 2316/2412 16005KT P6SM BKN010 OVC022 WS015/20030KT
     FM240000 12005KT 3SM RA BR OVC006 WS015/18032KT=



000
FTUS43 KAPX 231552 AAB
TAFAPN
TAF AMD
KAPN 231552Z 2316/2412 18009KT 3SM BR OVC009 WS015/20030KT
     FM240200 15009KT 4SM RA BR OVC006 WS015/18038KT=



000
FTUS43 KAPX 231552 AAB
TAFAPN
TAF AMD
KAPN 231552Z 2316/2412 18009KT 3SM BR OVC009 WS015/20030KT
     FM240200 15009KT 4SM RA BR OVC006 WS015/18038KT=



000
FTUS43 KAPX 231408 AAA
TAFPLN
TAF AMD
KPLN 231408Z 2314/2412 15003KT 1/4SM FG OVC002 WS015/22030KT
     FM231600 17006KT 3/4SM BR OVC006 WS015/21030KT
      TEMPO 2316/2319 1/2SM FG OVC005
     FM240200 12004KT 3SM RA BR OVC006 WS015/18028KT=



000
FTUS43 KAPX 231402 AAA
TAFAPN
TAF AMD
KAPN 231402Z 2314/2412 10005KT 1/2SM FG OVC003 WS015/20025KT
      TEMPO 2314/2316 1/4SM FG
     FM231600 18007KT 3/4SM BR OVC005 WS015/20030KT
     FM240200 15009KT 4SM RA BR OVC006 WS015/18038KT=



000
FTUS43 KAPX 231138
TAFTVC
TAF
KTVC 231138Z 2312/2412 00000KT 2SM BR OVC006 WS014/21030KT
     FM231400 16005KT 5SM -RA BR OVC009 WS015/20030KT
     FM240000 12005KT 3SM RA BR OVC006 WS015/18032KT=



000
FTUS43 KAPX 231138
TAFPLN
TAF
KPLN 231138Z 2312/2412 00000KT 1/2SM FG OVC004 WS015/22030KT
     FM231400 16005KT 3SM -DZ BR OVC007 WS015/21030KT
     FM240100 12004KT 3SM RA BR OVC006 WS015/18028KT=



000
FTUS43 KAPX 231138
TAFAPN
TAF
KAPN 231138Z 2312/2412 14005KT 1SM BR OVC003 WS015/20025KT
     FM231400 18008KT 5SM -DZ BR OVC008 WS015/20030KT
     FM240100 15009KT 4SM RA BR OVC006 WS015/18038KT=



000
FTUS43 KAPX 230844 AAA
TAFAPN
TAF AMD
KAPN 230844Z 2309/2406 00000KT 1 1/2SM -DZ BR OVC012
      TEMPO 2309/2313 1/2SM -DZ FG OVC006
     FM231400 18008KT 3SM -DZ BR OVC005 WS015/20030KT
     FM240100 14009KT 4SM RA BR OVC006 WS015/18038KT=



000
FTUS43 KAPX 230520
TAFAPN
TAF
KAPN 230520Z 2306/2406 19004KT 5SM BR OVC007
     FM231600 18008KT 5SM -RA BR OVC005 WS015/20030KT
     FM240100 14009KT 4SM RA BR OVC006 WS015/18038KT=



000
FTUS43 KAPX 230520
TAFTVC
TAF
KTVC 230520Z 2306/2406 21004KT 5SM BR BKN006 OVC023 WS014/23028KT
     FM231000 16005KT 4SM BR OVC006 WS014/21030KT
     FM231700 16005KT 3SM -RA BR OVC005 WS015/20030KT
     FM240000 12005KT 3SM RA BR OVC006 WS015/18032KT=



000
FTUS43 KAPX 230520
TAFPLN
TAF
KPLN 230520Z 2306/2406 16003KT 4SM BR OVC006
     FM230900 14005KT 3SM BR OVC005 WS015/22030KT
     FM231500 16005KT 3SM -DZ BR OVC005 WS015/21030KT
     FM240100 12004KT 2SM RA BR OVC005 WS015/18028KT=



000
FTUS43 KAPX 230337 AAA
TAFTVC
TAF AMD
KTVC 230337Z 2304/2324 20004KT 2SM BR BKN006 OVC012 WS014/23028KT
     FM231000 16005KT 1SM BR OVC004 WS014/21028KT
     FM231700 17005KT 2SM -RA BR OVC004 WS015/20032KT=



000
FTUS43 KAPX 230337 AAA
TAFTVC
TAF AMD
KTVC 230337Z 2304/2324 20004KT 2SM BR BKN006 OVC012 WS014/23028KT
     FM231000 16005KT 1SM BR OVC004 WS014/21028KT
     FM231700 17005KT 2SM -RA BR OVC004 WS015/20032KT=



000
FTUS43 KAPX 230137 AAA
TAFAPN
TAF AMD
KAPN 230137Z 2302/2324 21005KT 3SM BR OVC005 WS014/25028KT
     FM230500 19004KT 4SM BR OVC005
     FM231600 18008KT 5SM -RA BR OVC005 WS020/20032KT=



    US Dept of Commerce
    National Oceanic and Atmospheric Administration
    National Weather Service
    1325 East West Highway
    Silver Spring, MD 20910
    Page Author: NWS Internet Services Team
Disclaimer
Information Quality
Credits
Glossary
Privacy Policy
Freedom of Information Act (FOIA)
About Us
Career Opportunities